New York, New York
Traffic Map
Current Weather Conditions
New York, New York
Overcast
Overcast
57°
Feels Like: 57°
Wind Chill: 57° Ceiling: 6500
Heat Index: 57° Visibility: 10mi
Dew Point: 34° Wind: 8mph
Humidity: 42% Direction: 60° (ENE)
Pressure: 30.1in Gusts: 0mph
Raw Report DataKNYC 291851Z AUTO 06007KT 10SM BKN065 OVC080 14/01 A3010 RMK AO2 SLP185 T01390011 $
Traffic Incident Summary
Active as of:
Severity:
Category:
InformationThere was an issue retrieving the traffic information for this location. Please try a different location or try again shortly.
Advertisements
Track Severe Weather on mobile